Time;durP1;ratioP1;P1;durP2;ratioP2;P2;SDS_P1;SDS_P2;PMS_P1;PMS_P2;Temp;Humidity;BMP_temperature;BMP_pressure;BME280_temperature;BME280_humidity;BME280_pressure;Samples;Min_cycle;Max_cycle;Signal;HPM_P1;HPM_P2
2022/12/08 00:02:17;;;;;;;4.93;1.50;;;1.80;99.90;;;;;;5088711;28;20051;-65
2022/12/08 00:10:11;;;;;;;3.42;1.30;;;1.80;99.90;;;;;;5074837;28;20052;-65
2022/12/08 00:12:36;;;;;;;9.48;1.63;;;1.90;99.90;;;;;;5088092;28;20529;-65
2022/12/08 00:15:02;;;;;;;6.70;1.63;;;1.90;99.90;;;;;;5069606;28;20048;-65
2022/12/08 00:17:28;;;;;;;5.20;1.38;;;2.00;99.90;;;;;;5070312;28;20549;-65
2022/12/08 00:19:54;;;;;;;6.60;1.27;;;2.00;99.90;;;;;;5069413;28;20131;-65
2022/12/08 00:22:19;;;;;;;3.13;1.33;;;2.20;99.90;;;;;;5069437;28;20120;-65
2022/12/08 00:24:45;;;;;;;6.15;1.63;;;2.10;99.90;;;;;;5069180;28;20084;-64
2022/12/08 00:27:13;;;;;;;7.05;1.80;;;2.10;99.90;;;;;;5069142;28;20040;-65
2022/12/08 00:29:39;;;;;;;7.20;1.52;;;2.10;99.90;;;;;;5071931;28;20409;-65
2022/12/08 00:32:05;;;;;;;4.95;1.30;;;2.10;99.90;;;;;;5088975;28;20397;-64
2022/12/08 00:34:31;;;;;;;2.20;1.20;;;2.10;99.90;;;;;;5089067;28;20044;-65
2022/12/08 00:36:57;;;;;;;;;;;2.00;99.90;;;;;;5071916;28;20088;-65
2022/12/08 00:39:23;;;;;;;1.67;1.10;;;2.00;99.90;;;;;;5069009;28;19971;-65
2022/12/08 00:44:32;;;;;;;12.15;2.17;;;2.00;99.90;;;;;;5093823;28;20058;-65
2022/12/08 00:46:58;;;;;;;5.88;1.17;;;1.90;99.90;;;;;;5087170;28;20039;-65
2022/12/08 00:49:24;;;;;;;3.65;1.33;;;2.00;99.90;;;;;;5092368;28;20052;-65
2022/12/08 00:51:49;;;;;;;3.83;1.92;;;1.80;99.90;;;;;;5074867;28;20040;-65
2022/12/08 00:54:16;;;;;;;1.17;1.05;;;1.80;99.90;;;;;;5092785;28;20044;-65
2022/12/08 00:56:41;;;;;;;5.32;1.52;;;1.80;99.90;;;;;;5075185;28;20040;-66
2022/12/08 00:59:07;;;;;;;3.03;1.65;;;1.80;99.90;;;;;;5072983;28;20535;-64
2022/12/08 01:01:33;;;;;;;4.63;1.50;;;2.00;99.90;;;;;;5077761;28;20121;-65
2022/12/08 01:04:08;;;;;;;5.30;1.45;;;1.80;99.90;;;;;;5080674;28;20052;-65
2022/12/08 01:06:35;;;;;;;3.92;1.35;;;2.10;99.90;;;;;;5091640;28;20722;-65
2022/12/08 01:09:05;;;;;;;6.32;1.80;;;1.70;99.90;;;;;;5044579;28;20500;-67
2022/12/08 01:11:31;;;;;;;10.95;1.92;;;1.70;99.90;;;;;;5092878;28;20040;-64
2022/12/08 01:13:57;;;;;;;4.68;1.58;;;1.70;99.90;;;;;;5070888;28;20048;-64
2022/12/08 01:16:25;;;;;;;8.45;1.65;;;1.70;99.90;;;;;;5088802;28;20125;-65
2022/12/08 01:18:51;;;;;;;3.25;1.63;;;1.60;99.90;;;;;;5089777;28;20056;-65
2022/12/08 01:21:17;;;;;;;8.75;1.98;;;1.60;99.90;;;;;;5075526;28;20040;-65
2022/12/08 01:23:42;;;;;;;5.15;1.70;;;1.50;99.90;;;;;;5085611;28;20060;-65
2022/12/08 01:26:11;;;;;;;6.72;2.80;;;1.50;99.90;;;;;;5071860;28;20477;-64
2022/12/08 01:28:37;;;;;;;3.75;1.55;;;1.50;99.90;;;;;;5072825;28;20047;-65
2022/12/08 01:31:03;;;;;;;;;;;1.40;99.90;;;;;;5077763;28;20047;-67
2022/12/08 01:33:28;;;;;;;5.22;2.03;;;1.40;99.90;;;;;;5074691;28;20288;-65
2022/12/08 01:36:03;;;;;;;5.45;2.00;;;1.30;99.90;;;;;;5079723;28;20078;-64
2022/12/08 01:38:29;;;;;;;7.55;2.13;;;1.30;99.90;;;;;;5092228;28;20048;-64
2022/12/08 01:40:55;;;;;;;8.20;2.40;;;1.30;99.90;;;;;;5092124;28;20052;-65
2022/12/08 01:43:21;;;;;;;4.97;2.00;;;1.30;99.90;;;;;;5092192;28;20046;-65
2022/12/08 01:45:47;;;;;;;5.97;2.10;;;1.30;99.90;;;;;;5080221;28;20414;-65
2022/12/08 01:48:32;;;;;;;5.45;2.17;;;1.30;99.90;;;;;;5077875;28;20052;-65
2022/12/08 01:50:58;;;;;;;5.32;2.13;;;1.30;99.90;;;;;;5075764;28;20048;-65
2022/12/08 01:53:29;;;;;;;6.80;2.42;;;1.30;99.90;;;;;;5071457;28;20600;-65
2022/12/08 01:56:30;;;;;;;5.00;2.50;;;1.40;99.90;;;;;;5071873;28;20157;-65
2022/12/08 01:58:55;;;;;;;6.45;2.90;;;1.40;99.90;;;;;;5054120;28;20405;-65
2022/12/08 02:01:21;;;;;;;5.85;2.50;;;1.40;99.90;;;;;;5071418;28;20055;-65
2022/12/08 02:03:54;;;;;;;8.20;2.40;;;1.60;99.90;;;;;;5072142;28;20040;-65
2022/12/08 02:06:20;;;;;;;10.48;2.92;;;1.50;99.90;;;;;;5052612;28;20127;-65
2022/12/08 02:08:46;;;;;;;6.72;2.40;;;1.50;99.90;;;;;;5080944;28;20165;-65
2022/12/08 02:11:12;;;;;;;5.78;2.63;;;1.50;99.90;;;;;;5071823;28;20044;-64
2022/12/08 02:13:40;;;;;;;7.68;2.75;;;1.60;99.90;;;;;;5072668;28;20052;-65
2022/12/08 02:16:15;;;;;;;5.53;2.72;;;1.60;99.90;;;;;;5065562;28;20054;-67
2022/12/08 02:19:14;;;;;;;6.45;2.75;;;1.70;99.90;;;;;;5091851;28;20047;-65
2022/12/08 02:22:13;;;;;;;6.65;2.45;;;1.70;99.90;;;;;;5073785;28;20529;-65
2022/12/08 02:25:01;;;;;;;9.55;2.65;;;1.70;99.90;;;;;;5091684;28;20051;-65
2022/12/08 02:27:52;;;;;;;8.15;3.00;;;1.70;99.90;;;;;;5091161;28;20058;-65
2022/12/08 02:30:29;;;;;;;9.75;2.97;;;1.80;99.90;;;;;;5090534;28;20043;-65
2022/12/08 02:33:16;;;;;;;10.75;3.50;;;1.80;99.90;;;;;;5091671;28;20047;-65
2022/12/08 02:36:13;;;;;;;7.55;3.33;;;1.90;99.90;;;;;;5090712;28;20055;-65
2022/12/08 02:38:58;;;;;;;8.00;3.25;;;2.00;99.90;;;;;;5091554;28;20052;-65
2022/12/08 02:41:42;;;;;;;10.40;3.20;;;2.00;99.90;;;;;;5090919;28;20083;-64
2022/12/08 02:44:20;;;;;;;8.50;3.63;;;2.00;99.90;;;;;;5091934;28;20062;-65
2022/12/08 02:47:11;;;;;;;6.75;2.88;;;2.10;99.90;;;;;;5073301;28;20511;-65
2022/12/08 02:49:36;;;;;;;8.73;3.40;;;2.10;99.90;;;;;;5081283;28;20051;-66
2022/12/08 02:52:11;;;;;;;11.05;3.45;;;2.20;99.90;;;;;;5091357;28;20040;-65
2022/12/08 02:54:48;;;;;;;8.95;3.17;;;2.10;99.90;;;;;;5090091;28;20055;-65
2022/12/08 02:57:44;;;;;;;8.82;3.55;;;2.20;99.90;;;;;;5090421;28;20411;-65
2022/12/08 03:00:20;;;;;;;6.35;2.53;;;2.20;99.90;;;;;;5073096;28;20052;-65
2022/12/08 03:03:17;;;;;;;6.93;3.43;;;2.20;99.90;;;;;;5090560;28;20456;-65
2022/12/08 03:06:20;;;;;;;8.13;3.10;;;2.20;99.90;;;;;;5070041;28;20279;-65
2022/12/08 03:08:54;;;;;;;5.57;2.83;;;2.20;99.90;;;;;;5057942;28;20389;-65
2022/12/08 03:11:43;;;;;;;8.93;2.90;;;2.20;99.90;;;;;;5090351;28;20047;-64
2022/12/08 03:14:13;;;;;;;4.80;2.60;;;2.30;99.90;;;;;;5090910;28;20089;-65
2022/12/08 03:16:42;;;;;;;7.25;3.28;;;2.30;99.90;;;;;;5090448;28;20062;-65
2022/12/08 03:19:32;;;;;;;7.97;3.55;;;2.30;99.90;;;;;;5090574;28;20044;-65
2022/12/08 03:22:01;;;;;;;10.25;3.40;;;2.30;99.90;;;;;;5090538;28;20056;-64
2022/12/08 03:24:33;;;;;;;10.02;3.50;;;2.40;99.90;;;;;;5090030;28;20044;-64
2022/12/08 03:27:04;;;;;;;4.72;2.65;;;2.40;99.90;;;;;;5072112;28;20098;-65
2022/12/08 03:29:31;;;;;;;10.77;3.30;;;2.40;99.90;;;;;;5090398;28;20454;-65
2022/12/08 03:32:03;;;;;;;8.05;3.45;;;2.40;99.90;;;;;;5090931;28;20087;-65
2022/12/08 03:34:30;;;;;;;8.77;3.58;;;2.50;99.90;;;;;;5088661;28;20097;-65
2022/12/08 03:36:56;;;;;;;9.98;3.45;;;2.50;99.90;;;;;;5085710;28;20087;-64
2022/12/08 03:39:21;;;;;;;7.55;3.38;;;2.70;99.90;;;;;;5089965;28;20083;-64
2022/12/08 03:41:47;;;;;;;14.07;3.30;;;2.50;99.90;;;;;;5090519;28;20047;-65
2022/12/08 03:44:13;;;;;;;9.13;3.35;;;2.50;99.90;;;;;;5072679;28;20060;-65
2022/12/08 03:46:38;;;;;;;9.02;3.35;;;2.70;99.90;;;;;;5072446;28;20055;-65
2022/12/08 03:49:04;;;;;;;8.73;3.50;;;2.60;99.90;;;;;;5090380;28;20147;-65
2022/12/08 03:51:29;;;;;;;6.85;2.78;;;2.60;99.90;;;;;;5089532;28;20047;-65
2022/12/08 03:53:55;;;;;;;6.32;3.25;;;2.60;99.90;;;;;;5090291;28;20101;-64
2022/12/08 03:56:25;;;;;;;7.00;3.22;;;2.60;99.90;;;;;;5088784;28;20036;-66
2022/12/08 03:58:55;;;;;;;8.27;3.50;;;2.60;99.90;;;;;;5090257;28;20416;-64
2022/12/08 04:01:21;;;;;;;10.35;4.05;;;2.60;99.90;;;;;;5090029;28;20048;-65
2022/12/08 04:03:47;;;;;;;12.25;3.67;;;2.50;99.90;;;;;;5090648;28;20087;-64
2022/12/08 04:06:13;;;;;;;;;;;2.50;99.90;;;;;;5089776;28;20048;-65
2022/12/08 04:08:39;;;;;;;9.20;3.13;;;2.60;99.90;;;;;;5089612;28;19931;-65
2022/12/08 04:11:05;;;;;;;;;;;2.60;99.90;;;;;;5090583;28;20087;-64
2022/12/08 04:13:35;;;;;;;6.47;3.08;;;2.60;99.90;;;;;;5090059;28;19963;-64
2022/12/08 04:16:01;;;;;;;7.78;3.70;;;2.60;99.90;;;;;;5075509;28;20056;-65
2022/12/08 04:18:27;;;;;;;7.10;3.30;;;2.60;99.90;;;;;;5075889;28;20048;-65
2022/12/08 04:20:52;;;;;;;9.38;3.60;;;2.60;99.90;;;;;;5092622;28;20123;-64
2022/12/08 04:23:18;;;;;;;9.25;4.00;;;2.60;99.90;;;;;;5093883;28;20044;-67
2022/12/08 04:25:44;;;;;;;10.65;3.13;;;2.60;99.90;;;;;;5094258;28;20047;-64
2022/12/08 04:28:09;;;;;;;6.57;3.42;;;2.60;99.90;;;;;;5094560;28;20485;-64
2022/12/08 04:30:35;;;;;;;8.45;3.67;;;2.70;99.90;;;;;;5093875;28;20059;-65
2022/12/08 04:33:01;;;;;;;15.45;4.25;;;2.70;99.90;;;;;;5094326;28;20747;-67
2022/12/08 04:35:27;;;;;;;;;;;2.70;99.90;;;;;;5092954;28;20170;-64
2022/12/08 04:37:53;;;;;;;8.48;3.78;;;2.70;99.90;;;;;;5094287;28;20043;-64
2022/12/08 04:40:18;;;;;;;8.00;3.70;;;2.70;99.90;;;;;;5093473;28;20044;-67
2022/12/08 04:42:45;;;;;;;8.55;4.47;;;2.70;99.90;;;;;;5093701;28;20091;-64
2022/12/08 04:45:10;;;;;;;;;;;2.70;99.90;;;;;;5093949;28;20063;-64
2022/12/08 04:47:36;;;;;;;8.68;4.07;;;2.70;99.90;;;;;;5075217;28;19919;-65
2022/12/08 04:50:03;;;;;;;7.32;3.72;;;2.70;99.90;;;;;;5092522;28;20047;-65
2022/12/08 04:52:29;;;;;;;9.45;3.70;;;2.70;99.90;;;;;;5093377;28;20639;-64
2022/12/08 04:54:54;;;;;;;9.55;4.10;;;2.80;99.90;;;;;;5093393;28;20105;-65
2022/12/08 04:57:20;;;;;;;8.27;3.50;;;2.90;99.90;;;;;;5093168;28;20048;-67
2022/12/08 04:59:46;;;;;;;7.25;3.53;;;2.80;99.90;;;;;;5093368;28;20127;-65
2022/12/08 05:02:12;;;;;;;7.13;3.80;;;2.80;99.90;;;;;;5093784;28;20040;-65
2022/12/08 05:04:38;;;;;;;8.30;3.95;;;2.80;99.90;;;;;;5092177;28;20126;-65
2022/12/08 05:07:04;;;;;;;10.15;3.95;;;2.80;99.90;;;;;;5093507;28;20124;-65
2022/12/08 05:09:29;;;;;;;;;;;2.80;99.90;;;;;;5093081;28;20051;-64
2022/12/08 05:11:55;;;;;;;8.50;3.67;;;2.90;99.90;;;;;;5092245;28;19920;-64
2022/12/08 05:14:21;;;;;;;6.50;3.30;;;2.80;99.90;;;;;;5093441;28;20532;-66
2022/12/08 05:16:47;;;;;;;6.45;3.33;;;2.90;99.90;;;;;;5092814;28;20048;-64
2022/12/08 05:19:13;;;;;;;8.40;3.28;;;2.90;99.90;;;;;;5092675;28;20051;-65
2022/12/08 05:21:39;;;;;;;;;;;2.90;99.90;;;;;;5092183;28;20063;-65
2022/12/08 05:24:04;;;;;;;8.85;3.42;;;2.90;99.90;;;;;;5092973;28;20380;-64
2022/12/08 05:26:30;;;;;;;8.23;3.28;;;2.80;99.90;;;;;;5091595;28;20044;-64
2022/12/08 05:28:56;;;;;;;6.13;2.97;;;2.80;99.90;;;;;;5093310;28;20493;-65
2022/12/08 05:31:22;;;;;;;6.88;3.30;;;2.80;99.90;;;;;;5092948;28;20485;-65
2022/12/08 05:33:49;;;;;;;6.88;2.78;;;2.80;99.90;;;;;;5092756;28;20048;-65
2022/12/08 05:36:16;;;;;;;5.28;2.92;;;2.80;99.90;;;;;;5091880;28;20048;-64
2022/12/08 05:38:44;;;;;;;7.43;3.10;;;2.90;99.90;;;;;;5092141;28;20044;-64
2022/12/08 05:41:16;;;;;;;8.25;3.00;;;2.80;99.90;;;;;;5092536;28;20127;-65
2022/12/08 05:43:42;;;;;;;6.28;2.95;;;2.80;99.90;;;;;;5090864;28;20401;-64
2022/12/08 05:46:08;;;;;;;4.93;2.47;;;2.80;99.90;;;;;;5092731;28;20040;-64
2022/12/08 05:48:34;;;;;;;6.90;2.83;;;2.80;99.90;;;;;;5092345;28;20051;-65
2022/12/08 05:51:00;;;;;;;5.03;2.55;;;2.80;99.90;;;;;;5091550;28;20123;-65
2022/12/08 05:53:26;;;;;;;8.93;2.80;;;2.80;99.90;;;;;;5092078;28;20143;-67
2022/12/08 05:55:52;;;;;;;7.80;2.67;;;2.80;99.90;;;;;;5074324;28;20127;-65
2022/12/08 05:58:19;;;;;;;5.20;2.13;;;2.80;99.90;;;;;;5092402;28;20134;-65
2022/12/08 06:00:46;;;;;;;6.47;3.38;;;2.80;99.90;;;;;;5091963;28;20524;-65
2022/12/08 06:03:12;;;;;;;;;;;3.00;99.90;;;;;;5091728;28;20071;-65
2022/12/08 06:05:40;;;;;;;4.38;2.65;;;2.80;99.90;;;;;;5090859;28;19976;-64
2022/12/08 06:08:05;;;;;;;5.53;2.90;;;2.80;99.90;;;;;;5092178;28;20047;-65
2022/12/08 06:10:31;;;;;;;8.32;3.03;;;2.80;99.90;;;;;;5091405;28;20040;-65
2022/12/08 06:12:57;;;;;;;5.10;2.42;;;2.80;99.90;;;;;;5092475;28;20374;-65
2022/12/08 06:15:22;;;;;;;6.40;2.40;;;2.80;99.90;;;;;;5092202;28;20048;-65
2022/12/08 06:17:48;;;;;;;8.35;3.03;;;2.90;99.90;;;;;;5091987;28;20198;-64
2022/12/08 06:20:14;;;;;;;12.35;3.28;;;2.80;99.90;;;;;;5056829;28;20059;-65
2022/12/08 06:22:40;;;;;;;8.88;2.90;;;2.80;99.90;;;;;;5091474;28;20051;-64
2022/12/08 06:25:06;;;;;;;6.95;2.80;;;2.80;99.90;;;;;;5091174;28;20074;-66
2022/12/08 06:27:33;;;;;;;5.43;3.00;;;2.80;99.90;;;;;;5090487;28;20052;-64
2022/12/08 06:29:59;;;;;;;6.88;3.10;;;2.80;99.90;;;;;;5091865;28;20047;-65
2022/12/08 06:32:25;;;;;;;5.60;2.78;;;2.80;99.90;;;;;;5092005;28;20052;-65
2022/12/08 06:34:51;;;;;;;5.20;2.97;;;2.80;99.90;;;;;;5090386;28;20056;-65
2022/12/08 06:37:17;;;;;;;6.97;3.15;;;2.80;99.90;;;;;;5090983;28;20047;-65
2022/12/08 06:39:43;;;;;;;5.15;2.80;;;2.80;99.90;;;;;;5089417;28;20048;-64
2022/12/08 06:44:53;;;;;;;5.32;2.50;;;2.80;99.90;;;;;;5076922;28;20416;-65
2022/12/08 06:47:20;;;;;;;8.43;3.90;;;2.80;99.90;;;;;;5091295;28;20488;-65
2022/12/08 06:49:46;;;;;;;6.38;2.63;;;2.80;99.90;;;;;;5072379;28;20098;-64
2022/12/08 06:52:11;;;;;;;5.63;2.60;;;2.80;99.90;;;;;;5071187;28;20044;-65
2022/12/08 06:54:37;;;;;;;7.22;2.45;;;2.80;99.90;;;;;;5070296;28;20098;-64
2022/12/08 06:57:03;;;;;;;5.15;2.60;;;2.80;99.90;;;;;;5053561;28;20521;-65
2022/12/08 06:59:29;;;;;;;6.80;3.05;;;2.80;99.90;;;;;;5091396;28;20056;-64
2022/12/08 07:01:56;;;;;;;5.28;2.90;;;2.80;99.90;;;;;;5090937;28;20051;-65
2022/12/08 07:04:22;;;;;;;5.85;2.75;;;2.80;99.90;;;;;;5071155;28;20047;-64
2022/12/08 07:06:47;;;;;;;6.63;2.85;;;2.80;99.90;;;;;;5090253;28;20040;-65
2022/12/08 07:09:14;;;;;;;9.65;3.50;;;2.80;99.90;;;;;;5090905;28;20131;-65
2022/12/08 07:11:39;;;;;;;;;;;2.90;99.90;;;;;;5072465;28;20044;-65
2022/12/08 07:14:05;;;;;;;9.35;3.42;;;2.80;99.90;;;;;;5091245;28;19927;-65
2022/12/08 07:16:30;;;;;;;7.72;3.30;;;2.80;99.90;;;;;;5091323;28;20089;-65
2022/12/08 07:18:56;;;;;;;7.00;3.40;;;3.00;99.90;;;;;;5090286;28;20079;-66
2022/12/08 07:21:22;;;;;;;7.32;3.33;;;2.80;99.90;;;;;;5090324;28;20061;-64
2022/12/08 07:23:49;;;;;;;6.85;3.03;;;2.80;99.90;;;;;;5090183;28;20059;-64
2022/12/08 07:26:15;;;;;;;10.13;3.40;;;2.80;99.90;;;;;;5089746;28;20048;-64
2022/12/08 07:28:41;;;;;;;9.15;3.60;;;2.80;99.90;;;;;;5090661;28;20366;-64
2022/12/08 07:31:16;;;;;;;8.02;3.63;;;2.80;99.90;;;;;;5090703;28;20044;-64
2022/12/08 07:33:42;;;;;;;9.32;3.65;;;2.70;99.90;;;;;;5090544;28;20043;-64
2022/12/08 07:36:07;;;;;;;7.85;3.40;;;2.90;99.90;;;;;;5089696;28;20048;-65
2022/12/08 07:38:33;;;;;;;7.15;3.45;;;2.70;99.90;;;;;;5090386;28;20074;-65
2022/12/08 07:40:59;;;;;;;6.45;3.17;;;2.70;99.90;;;;;;5090256;28;20740;-63
2022/12/08 07:43:25;;;;;;;6.68;2.80;;;2.70;99.90;;;;;;5090950;28;20047;-64
2022/12/08 07:45:51;;;;;;;6.00;2.72;;;2.60;99.90;;;;;;5090098;28;20056;-64
2022/12/08 07:48:17;;;;;;;5.85;2.50;;;2.60;99.90;;;;;;5090235;28;20047;-66
2022/12/08 07:50:44;;;;;;;7.13;2.97;;;2.60;99.90;;;;;;5087909;28;20127;-65
2022/12/08 07:53:10;;;;;;;8.82;2.65;;;2.60;99.90;;;;;;5090217;28;20036;-66
2022/12/08 07:55:39;;;;;;;8.38;2.47;;;2.60;99.90;;;;;;5090193;28;20058;-66
2022/12/08 07:58:05;;;;;;;6.75;3.05;;;2.60;99.90;;;;;;5089974;28;20069;-65
2022/12/08 08:00:31;;;;;;;;;;;2.60;99.90;;;;;;5090360;28;20067;-65
2022/12/08 08:02:57;;;;;;;6.22;2.28;;;2.60;99.90;;;;;;5090153;28;19923;-65
2022/12/08 08:05:22;;;;;;;3.95;2.17;;;2.60;99.90;;;;;;5089350;28;20043;-65
2022/12/08 08:07:48;;;;;;;7.07;2.40;;;2.50;99.90;;;;;;5090222;28;20066;-65
2022/12/08 08:10:14;;;;;;;11.32;2.63;;;2.50;99.90;;;;;;5054857;28;20044;-65
2022/12/08 08:12:40;;;;;;;3.17;1.80;;;2.50;99.90;;;;;;5089360;28;20048;-67
2022/12/08 08:15:07;;;;;;;4.05;2.05;;;2.50;99.90;;;;;;5088538;28;20131;-65
2022/12/08 08:17:34;;;;;;;3.90;1.90;;;2.50;99.90;;;;;;5088227;28;20097;-65
2022/12/08 08:20:00;;;;;;;6.07;2.05;;;2.40;99.90;;;;;;5088166;28;20052;-64
2022/12/08 08:22:26;;;;;;;2.85;1.80;;;2.40;99.90;;;;;;5088830;28;20044;-64
2022/12/08 08:24:52;;;;;;;3.97;1.67;;;2.40;99.90;;;;;;5088847;28;20052;-64
2022/12/08 08:27:19;;;;;;;;;;;2.40;99.90;;;;;;5089988;28;20048;-64
2022/12/08 08:29:44;;;;;;;5.90;1.70;;;2.30;99.90;;;;;;5088318;28;20007;-69
2022/12/08 08:32:10;;;;;;;3.92;1.40;;;2.30;99.90;;;;;;5081696;28;20131;-65
2022/12/08 08:34:36;;;;;;;5.85;1.90;;;2.30;99.90;;;;;;5086923;28;20040;-65
2022/12/08 08:37:02;;;;;;;5.82;1.40;;;2.30;99.90;;;;;;5088379;28;20051;-65
2022/12/08 08:39:29;;;;;;;4.60;1.88;;;2.30;99.90;;;;;;5087962;28;20047;-66
2022/12/08 08:41:54;;;;;;;3.92;1.27;;;2.30;99.90;;;;;;5087099;28;20047;-65
2022/12/08 08:44:20;;;;;;;3.90;1.52;;;2.30;99.90;;;;;;5086783;28;20477;-67
2022/12/08 08:46:46;;;;;;;7.43;2.85;;;2.40;99.90;;;;;;5088290;28;20054;-68
2022/12/08 08:49:11;;;;;;;2.83;1.15;;;2.30;99.90;;;;;;5088370;28;20109;-65
2022/12/08 08:51:37;;;;;;;3.00;1.27;;;2.30;99.90;;;;;;5088986;28;20477;-67
2022/12/08 08:54:03;;;;;;;2.95;1.75;;;2.30;99.90;;;;;;5087241;28;20086;-65
2022/12/08 08:56:29;;;;;;;2.25;1.30;;;2.30;99.90;;;;;;5084043;28;20120;-66
2022/12/08 08:58:54;;;;;;;2.08;1.30;;;2.40;99.90;;;;;;5088274;28;20087;-66
2022/12/08 09:01:24;;;;;;;3.50;1.30;;;2.40;99.90;;;;;;5089573;28;20059;-68
2022/12/08 09:03:50;;;;;;;3.55;1.00;;;2.40;99.90;;;;;;5087485;28;20040;-68
2022/12/08 09:06:16;;;;;;;4.72;1.10;;;2.60;99.90;;;;;;5075848;28;20132;-65
2022/12/08 09:08:42;;;;;;;;;;;2.40;99.90;;;;;;5090445;28;20052;-65
2022/12/08 09:11:08;;;;;;;3.40;0.90;;;2.70;99.90;;;;;;5072253;28;19920;-65
2022/12/08 09:13:35;;;;;;;2.92;1.13;;;2.50;99.90;;;;;;5073267;28;20052;-65
2022/12/08 09:16:02;;;;;;;5.63;1.15;;;2.70;99.90;;;;;;5072263;28;20049;-65
2022/12/08 09:18:28;;;;;;;1.60;0.90;;;2.50;99.90;;;;;;5073042;28;20059;-65
2022/12/08 09:20:54;;;;;;;1.00;0.90;;;2.50;99.90;;;;;;5085631;28;20497;-65
2022/12/08 09:23:20;;;;;;;2.13;1.00;;;2.60;99.90;;;;;;5092757;28;20040;-65
2022/12/08 09:25:46;;;;;;;0.95;0.95;;;2.60;99.90;;;;;;5078044;28;20490;-65
2022/12/08 09:28:12;;;;;;;2.65;0.95;;;2.60;99.90;;;;;;5092727;28;20130;-65
2022/12/08 09:30:38;;;;;;;2.50;1.17;;;2.60;99.90;;;;;;5075910;28;20097;-65
2022/12/08 09:33:04;;;;;;;5.90;1.38;;;2.70;99.90;;;;;;5072270;28;20443;-65
2022/12/08 09:35:30;;;;;;;1.27;0.93;;;2.60;99.90;;;;;;5071339;28;20049;-65
2022/12/08 09:37:56;;;;;;;2.20;1.00;;;2.60;99.90;;;;;;5072218;28;20504;-65
2022/12/08 09:40:23;;;;;;;1.23;0.90;;;2.60;99.90;;;;;;5071858;28;20055;-67
2022/12/08 09:43:21;;;;;;;2.45;0.93;;;2.60;99.90;;;;;;5071894;28;20036;-65
2022/12/08 09:45:47;;;;;;;3.13;1.20;;;2.60;99.90;;;;;;5076961;28;20094;-65
2022/12/08 09:48:22;;;;;;;1.13;1.00;;;2.70;99.90;;;;;;5090301;28;20068;-66
2022/12/08 09:50:56;;;;;;;1.25;0.90;;;2.70;99.90;;;;;;5090354;28;20067;-65
2022/12/08 09:53:29;;;;;;;1.13;0.98;;;2.70;99.90;;;;;;5086022;28;20043;-69
2022/12/08 09:55:59;;;;;;;4.00;0.90;;;2.70;99.90;;;;;;5089670;28;20047;-68
2022/12/08 09:58:36;;;;;;;2.72;1.10;;;2.70;99.90;;;;;;5089682;28;20109;-66
2022/12/08 10:01:02;;;;;;;3.33;1.20;;;2.80;99.90;;;;;;5089284;28;20067;-66
2022/12/08 10:03:29;;;;;;;1.70;1.00;;;2.80;99.90;;;;;;5074837;28;20048;-66
2022/12/08 10:06:05;;;;;;;2.17;1.00;;;3.00;99.90;;;;;;5088751;28;20447;-66
2022/12/08 10:08:45;;;;;;;2.22;1.27;;;2.90;99.90;;;;;;5091008;28;20052;-67
2022/12/08 10:11:21;;;;;;;3.17;0.80;;;2.90;99.90;;;;;;5088271;28;20044;-67
2022/12/08 10:13:59;;;;;;;1.45;0.82;;;3.10;99.90;;;;;;5090079;28;20502;-69
2022/12/08 10:16:40;;;;;;;4.00;1.15;;;3.00;99.90;;;;;;5087235;28;20048;-67
2022/12/08 10:19:15;;;;;;;1.33;0.82;;;3.20;99.90;;;;;;5089746;28;20036;-67
2022/12/08 10:21:41;;;;;;;1.38;1.15;;;3.10;99.90;;;;;;5090275;28;20119;-66
2022/12/08 10:24:33;;;;;;;4.90;1.20;;;3.10;99.90;;;;;;5070947;28;20062;-67
2022/12/08 10:27:01;;;;;;;2.42;1.70;;;3.10;99.90;;;;;;5070979;28;20044;-69
2022/12/08 10:29:27;;;;;;;1.40;0.95;;;3.50;99.90;;;;;;5090318;28;20510;-66
2022/12/08 10:31:54;;;;;;;1.98;1.20;;;3.20;99.90;;;;;;5071591;28;20263;-65
2022/12/08 10:34:23;;;;;;;2.33;1.25;;;3.30;99.90;;;;;;5088696;28;20123;-66
2022/12/08 10:36:50;;;;;;;1.65;1.20;;;3.20;99.90;;;;;;5089758;28;20525;-66
2022/12/08 10:39:34;;;;;;;3.22;1.50;;;3.30;99.90;;;;;;5088908;28;20043;-66
2022/12/08 10:42:21;;;;;;;9.00;2.22;;;3.30;99.90;;;;;;5088280;28;20043;-69
2022/12/08 10:44:56;;;;;;;3.15;1.70;;;3.30;99.90;;;;;;5088155;28;20062;-67
2022/12/08 10:47:24;;;;;;;4.53;1.48;;;3.30;99.90;;;;;;5088771;28;20062;-67
2022/12/08 10:50:21;;;;;;;5.13;2.00;;;3.20;99.90;;;;;;5089006;28;20051;-66
2022/12/08 10:53:07;;;;;;;2.63;1.83;;;3.20;99.90;;;;;;5090327;28;20047;-65
2022/12/08 10:55:47;;;;;;;5.97;2.00;;;3.10;99.90;;;;;;5088558;28;20040;-66
2022/12/08 10:58:44;;;;;;;3.47;2.15;;;3.10;99.90;;;;;;5089054;28;20104;-65
2022/12/08 11:01:12;;;;;;;3.77;1.87;;;3.70;99.90;;;;;;5075602;28;20090;-66
2022/12/08 11:03:49;;;;;;;2.80;1.88;;;3.20;99.90;;;;;;5089669;28;20488;-65
2022/12/08 11:06:19;;;;;;;4.88;2.50;;;3.10;99.90;;;;;;5084754;28;20048;-66
2022/12/08 11:08:47;;;;;;;3.65;2.15;;;3.20;99.90;;;;;;5088698;28;20071;-65
2022/12/08 11:11:13;;;;;;;5.90;2.55;;;3.40;99.90;;;;;;5088016;28;20047;-65
2022/12/08 11:13:40;;;;;;;7.47;3.28;;;3.40;99.90;;;;;;5089485;28;20048;-65
2022/12/08 11:16:07;;;;;;;7.50;2.50;;;3.30;99.90;;;;;;5087848;28;20051;-66
2022/12/08 11:19:05;;;;;;;8.07;2.40;;;3.30;99.90;;;;;;5089225;28;20048;-66
2022/12/08 11:21:36;;;;;;;4.72;2.83;;;3.30;99.90;;;;;;5088477;28;20139;-66
2022/12/08 11:24:13;;;;;;;6.38;2.85;;;3.30;99.90;;;;;;5088470;28;20043;-65
2022/12/08 11:26:42;;;;;;;6.45;2.50;;;3.30;99.90;;;;;;5087789;28;20040;-65
2022/12/08 11:29:11;;;;;;;5.57;2.80;;;3.50;99.90;;;;;;5088501;28;20190;-67
2022/12/08 11:31:45;;;;;;;5.63;2.70;;;3.30;99.90;;;;;;5086825;28;20587;-66
2022/12/08 11:34:25;;;;;;;7.47;2.60;;;3.40;99.90;;;;;;5070182;28;20047;-66
2022/12/08 11:36:53;;;;;;;6.75;2.50;;;3.80;99.90;;;;;;5084674;28;20037;-65
2022/12/08 11:39:20;;;;;;;4.35;2.30;;;3.40;99.90;;;;;;5088146;28;20118;-65
2022/12/08 11:41:46;;;;;;;8.00;2.83;;;3.50;99.90;;;;;;5083214;28;20036;-66
2022/12/08 11:44:34;;;;;;;;;;;3.40;99.90;;;;;;5089318;28;20067;-65
2022/12/08 11:47:14;;;;;;;5.60;2.60;;;3.40;99.90;;;;;;5080334;28;19924;-66
2022/12/08 11:49:41;;;;;;;5.35;2.35;;;3.30;99.90;;;;;;5088990;28;20089;-65
2022/12/08 11:52:32;;;;;;;4.53;2.10;;;3.50;99.90;;;;;;5089711;28;20637;-67
2022/12/08 11:55:19;;;;;;;3.72;2.25;;;3.30;99.90;;;;;;5078598;28;20127;-65
2022/12/08 11:57:45;;;;;;;7.28;2.42;;;3.30;99.90;;;;;;5076206;28;20067;-65
2022/12/08 12:00:16;;;;;;;4.55;2.28;;;3.30;99.90;;;;;;5077451;28;20117;-65
2022/12/08 12:02:48;;;;;;;7.30;2.67;;;3.30;99.90;;;;;;5067898;28;20040;-65
2022/12/08 12:06:00;;;;;;;4.75;2.40;;;3.30;99.90;;;;;;5068298;28;20501;-65
2022/12/08 12:08:52;;;;;;;4.63;2.28;;;3.30;99.90;;;;;;5052845;28;20067;-65
2022/12/08 12:14:43;;;;;;;8.98;2.65;;;3.30;99.90;;;;;;5079772;28;20179;-65
2022/12/08 12:17:33;;;;;;;5.57;2.80;;;3.30;99.90;;;;;;5090043;28;20075;-67
2022/12/08 12:20:03;;;;;;;5.88;2.78;;;3.40;99.90;;;;;;5089237;28;20051;-65
2022/12/08 12:22:33;;;;;;;7.63;2.15;;;3.40;99.90;;;;;;5075408;28;20869;-65
2022/12/08 12:25:00;;;;;;;4.53;2.55;;;3.50;99.90;;;;;;5069920;28;20413;-65
2022/12/08 12:27:36;;;;;;;5.07;2.40;;;3.80;99.90;;;;;;5069196;28;20448;-66
2022/12/08 12:30:07;;;;;;;5.40;2.83;;;5.20;99.90;;;;;;5077196;28;20040;-65
2022/12/08 12:33:00;;;;;;;3.80;1.98;;;6.70;99.90;;;;;;5055527;28;20052;-66
2022/12/08 12:35:32;;;;;;;6.65;2.65;;;7.20;99.90;;;;;;5086020;28;20521;-66
2022/12/08 12:41:14;;;;;;;4.80;2.40;;;8.10;99.90;;;;;;5093164;28;20098;-67
2022/12/08 12:44:08;;;;;;;4.13;2.40;;;9.80;99.90;;;;;;5094304;28;20348;-64
2022/12/08 12:46:44;;;;;;;5.35;1.83;;;11.50;99.90;;;;;;5093279;28;20048;-64
2022/12/08 12:49:38;;;;;;;5.37;2.10;;;12.90;99.90;;;;;;5075194;28;20047;-66
2022/12/08 12:52:42;;;;;;;4.82;2.20;;;14.00;99.90;;;;;;5073415;28;20298;-65
2022/12/08 12:55:10;;;;;;;3.88;2.10;;;14.90;99.90;;;;;;5090694;28;20564;-64
2022/12/08 12:57:38;;;;;;;4.90;2.15;;;15.20;99.90;;;;;;5092815;28;20087;-64
2022/12/08 13:00:04;;;;;;;3.63;1.98;;;15.10;99.90;;;;;;5093728;28;20048;-64
2022/12/08 13:02:32;;;;;;;3.70;2.20;;;15.00;99.90;;;;;;5093374;28;20770;-64
2022/12/08 13:05:07;;;;;;;5.10;2.00;;;14.60;99.90;;;;;;5092412;28;20052;-64
2022/12/08 13:07:41;;;;;;;3.97;1.88;;;13.90;99.90;;;;;;5093262;28;20044;-65
2022/12/08 13:10:16;;;;;;;4.57;2.08;;;13.00;99.90;;;;;;5093325;28;20052;-64
2022/12/08 13:12:44;;;;;;;5.10;2.20;;;11.80;99.90;;;;;;5093116;28;20099;-64
2022/12/08 13:15:18;;;;;;;6.03;2.38;;;10.60;99.90;;;;;;5074620;28;20055;-63
2022/12/08 13:17:47;;;;;;;3.72;2.20;;;9.70;99.90;;;;;;5093664;28;20137;-63
2022/12/08 13:20:20;;;;;;;5.97;2.63;;;9.00;99.90;;;;;;5092285;28;20051;-66
2022/12/08 13:22:51;;;;;;;3.80;2.20;;;8.30;99.90;;;;;;5093779;28;20043;-63
2022/12/08 13:25:39;;;;;;;4.30;2.25;;;7.60;99.90;;;;;;5092354;28;20051;-63
2022/12/08 13:28:16;;;;;;;;;;;7.10;99.90;;;;;;5093887;28;20054;-63
2022/12/08 13:30:48;;;;;;;7.30;2.38;;;6.70;99.90;;;;;;5093074;28;19923;-63
2022/12/08 13:33:23;;;;;;;5.82;2.80;;;6.30;99.90;;;;;;5091997;28;20043;-66
2022/12/08 13:36:10;;;;;;;3.55;2.15;;;6.10;99.90;;;;;;5092114;28;20534;-62